Time;durP1;ratioP1;P1;durP2;ratioP2;P2;SDS_P1;SDS_P2;PMS_P1;PMS_P2;Temp;Humidity;BMP_temperature;BMP_pressure;BME280_temperature;BME280_humidity;BME280_pressure;Samples;Min_cycle;Max_cycle;Signal;HPM_P1;HPM_P2
2023/05/14 00:00:24;;;;;;;4.93;4.43;;;18.40;44.30;;;21.09;34.72;101910.78;5055471;28;20186;-66
2023/05/14 00:02:51;;;;;;;5.53;5.00;;;18.40;44.30;;;21.05;34.77;101914.94;5055121;28;20241;-66
2023/05/14 00:05:18;;;;;;;7.37;4.93;;;18.40;44.30;;;20.99;35.15;101916.56;5055357;28;20728;-66
2023/05/14 00:07:45;;;;;;;4.90;4.37;;;18.30;44.50;;;20.90;35.59;101912.50;5044897;28;20593;-66
2023/05/14 00:10:12;;;;;;;5.57;5.03;;;18.30;44.70;;;20.82;35.83;101920.78;5035184;28;20739;-66
2023/05/14 00:12:39;;;;;;;6.97;4.93;;;18.20;44.90;;;20.72;35.98;101913.22;5049707;28;20198;-66
2023/05/14 00:15:07;;;;;;;4.83;4.43;;;18.10;45.10;;;20.64;35.60;101912.59;5054923;28;20213;-66
2023/05/14 00:17:36;;;;;;;4.97;4.57;;;18.00;45.30;;;20.58;35.91;101913.47;5055315;28;20193;-66
2023/05/14 00:20:06;;;;;;;5.30;4.80;;;17.90;45.70;;;20.54;36.32;101912.25;5055436;28;20190;-66
2023/05/14 00:22:33;;;;;;;5.93;5.33;;;17.90;45.90;;;20.51;36.55;101913.50;5054920;28;20243;-66
2023/05/14 00:25:00;;;;;;;5.33;4.90;;;17.80;46.30;;;20.48;36.30;101910.41;5054567;28;20267;-66
2023/05/14 00:27:27;;;;;;;7.13;4.80;;;17.80;46.30;;;20.44;36.42;101909.19;5054857;28;20549;-66
2023/05/14 00:29:53;;;;;;;6.63;5.00;;;17.80;46.20;;;20.40;36.59;101905.28;5054795;28;20277;-66
2023/05/14 00:32:20;;;;;;;5.07;4.67;;;17.70;46.50;;;20.33;36.75;101907.16;5055006;28;20194;-66
2023/05/14 00:34:49;;;;;;;5.13;4.60;;;17.70;46.60;;;20.23;37.05;101905.72;5054613;28;20552;-66
2023/05/14 00:37:15;;;;;;;6.77;5.00;;;17.60;46.90;;;20.15;37.28;101900.59;5055237;28;20197;-66
2023/05/14 00:39:42;;;;;;;4.90;4.40;;;17.50;47.30;;;20.13;37.20;101899.16;5055071;28;20253;-66
2023/05/14 00:42:09;;;;;;;6.73;5.13;;;17.50;47.70;;;20.15;37.50;101891.75;5054150;28;20267;-66
2023/05/14 00:44:36;;;;;;;4.73;4.27;;;17.50;47.90;;;20.19;37.19;101899.13;5054613;28;20233;-68
2023/05/14 00:47:04;;;;;;;5.20;4.70;;;17.50;48.00;;;20.24;37.14;101899.38;5055272;28;20201;-66
2023/05/14 00:49:31;;;;;;;5.80;4.60;;;17.50;48.00;;;20.24;37.10;101894.00;5055472;28;20221;-66
2023/05/14 00:52:00;;;;;;;5.70;4.37;;;17.50;48.00;;;20.23;37.56;101889.69;5056109;28;20193;-66
2023/05/14 00:54:28;;;;;;;5.27;4.57;;;17.50;48.10;;;20.20;37.64;101895.44;5060142;28;20236;-66
2023/05/14 00:56:55;;;;;;;4.90;4.40;;;17.50;48.40;;;20.15;37.68;101897.91;5064304;28;20205;-65
2023/05/14 00:59:22;;;;;;;6.63;4.87;;;17.50;48.50;;;20.04;37.98;101893.19;5061486;28;20213;-66
2023/05/14 01:01:49;;;;;;;6.00;4.70;;;17.40;48.50;;;19.95;38.08;101897.13;5054700;28;20190;-65
2023/05/14 01:04:17;;;;;;;6.43;4.77;;;17.40;48.70;;;19.89;37.93;101899.81;5054154;28;20230;-66
2023/05/14 01:06:56;;;;;;;5.57;4.73;;;17.20;49.00;;;19.78;38.34;101892.41;5054416;28;20190;-67
2023/05/14 01:09:35;;;;;;;5.43;4.87;;;17.10;49.10;;;19.72;38.50;101894.06;5054677;28;20213;-66
2023/05/14 01:12:08;;;;;;;4.73;4.33;;;17.10;49.60;;;19.70;38.65;101898.78;5054774;28;20182;-65
2023/05/14 01:14:44;;;;;;;5.20;4.73;;;17.00;50.00;;;19.67;39.08;101893.00;5041043;28;20206;-66
2023/05/14 01:17:12;;;;;;;5.80;5.20;;;17.00;50.40;;;19.66;38.85;101888.72;5054519;28;20205;-66
2023/05/14 01:19:41;;;;;;;6.93;5.27;;;17.00;50.40;;;19.63;38.89;101887.28;5054381;28;20666;-66
2023/05/14 01:22:11;;;;;;;6.33;5.73;;;16.90;50.50;;;19.58;39.10;101890.56;5054335;28;20661;-66
2023/05/14 01:24:39;;;;;;;6.13;5.50;;;16.90;51.00;;;19.53;39.34;101890.34;5053606;28;20705;-66
2023/05/14 01:27:14;;;;;;;5.67;5.13;;;16.80;51.20;;;19.47;39.23;101887.66;5054319;28;20236;-66
2023/05/14 01:29:52;;;;;;;7.70;5.60;;;16.80;51.40;;;19.40;39.60;101889.50;5054343;28;20231;-66
2023/05/14 01:32:23;;;;;;;8.43;5.43;;;16.70;51.90;;;19.40;39.55;101889.50;5054023;28;20198;-64
2023/05/14 01:34:54;;;;;;;6.47;5.20;;;16.70;51.90;;;19.39;39.66;101880.69;5053813;28;20206;-66
2023/05/14 01:37:24;;;;;;;5.27;4.77;;;16.70;52.10;;;19.40;39.43;101886.84;5054197;28;20183;-66
2023/05/14 01:39:54;;;;;;;5.53;5.10;;;16.70;52.00;;;19.41;39.65;101872.47;5053890;28;20553;-66
2023/05/14 01:42:22;;;;;;;6.33;5.20;;;16.70;52.00;;;19.40;39.60;101873.47;5053428;28;20206;-66
2023/05/14 01:44:49;;;;;;;5.53;5.10;;;16.70;52.00;;;19.38;39.72;101872.88;5053552;28;20228;-66
2023/05/14 01:47:16;;;;;;;6.17;5.17;;;16.70;52.40;;;19.36;39.83;101875.75;5052625;28;20190;-66
2023/05/14 01:49:43;;;;;;;7.00;5.20;;;16.60;52.50;;;19.33;39.99;101859.28;5053650;28;20247;-66
2023/05/14 01:52:10;;;;;;;6.30;5.73;;;16.60;52.80;;;19.29;39.80;101866.88;5054128;28;20240;-66
2023/05/14 01:54:39;;;;;;;5.07;4.67;;;16.60;52.60;;;19.26;40.01;101861.94;5053639;28;20240;-66
2023/05/14 01:57:06;;;;;;;7.17;5.13;;;16.50;52.90;;;19.21;40.22;101861.72;5053746;28;20194;-66
2023/05/14 01:59:32;;;;;;;6.73;5.73;;;16.50;53.30;;;19.16;40.31;101863.38;5053932;28;20206;-66
2023/05/14 02:01:59;;;;;;;5.57;5.07;;;16.40;53.40;;;19.11;40.52;101860.50;5054003;28;20283;-66
2023/05/14 02:04:26;;;;;;;6.00;5.17;;;16.40;53.90;;;19.09;40.79;101862.56;5053417;28;20681;-66
2023/05/14 02:06:53;;;;;;;6.03;4.97;;;16.30;54.30;;;19.10;40.53;101851.66;5053560;28;20186;-66
2023/05/14 02:09:20;;;;;;;5.60;5.10;;;16.40;54.20;;;19.14;40.62;101854.72;5053779;28;20189;-66
2023/05/14 02:11:48;;;;;;;6.13;5.40;;;16.40;55.00;;;19.17;40.78;101859.66;5053519;28;20216;-65
2023/05/14 02:14:15;;;;;;;5.70;5.20;;;16.40;54.60;;;19.20;40.91;101853.94;5053337;28;20236;-66
2023/05/14 02:16:42;;;;;;;6.77;5.10;;;16.50;54.50;;;19.22;40.81;101846.53;5053882;28;20193;-66
2023/05/14 02:19:09;;;;;;;7.43;4.97;;;16.50;54.60;;;19.27;40.65;101838.75;5053655;28;20193;-66
2023/05/14 02:21:36;;;;;;;6.80;6.20;;;16.60;54.30;;;19.33;40.38;101840.56;5052205;28;20248;-66
2023/05/14 02:24:04;;;;;;;8.00;5.40;;;16.60;54.30;;;19.36;40.40;101833.03;5053026;28;20217;-66
2023/05/14 02:26:31;;;;;;;6.57;5.70;;;16.60;54.00;;;19.37;40.21;101836.53;5053341;28;20194;-66
2023/05/14 02:28:59;;;;;;;6.10;5.50;;;16.70;54.00;;;19.32;40.44;101834.44;5053034;28;20276;-65
2023/05/14 02:31:26;;;;;;;5.27;4.77;;;16.60;54.40;;;19.31;40.47;101823.94;5053427;28;20190;-65
2023/05/14 02:33:53;;;;;;;5.93;5.37;;;16.60;54.40;;;19.33;40.48;101821.88;5052715;28;20244;-65
2023/05/14 02:36:20;;;;;;;8.00;5.80;;;16.60;54.80;;;19.34;40.85;101826.22;5053171;28;20200;-66
2023/05/14 02:38:47;;;;;;;5.53;5.07;;;16.70;55.10;;;19.30;40.99;101833.00;5052235;28;20209;-66
2023/05/14 02:41:13;;;;;;;8.93;5.93;;;16.60;55.00;;;19.22;41.33;101830.53;5053073;28;20275;-67
2023/05/14 02:43:40;;;;;;;7.60;5.87;;;16.50;55.40;;;19.11;41.29;101823.13;5053262;28;20201;-66
2023/05/14 02:46:08;;;;;;;6.63;5.97;;;16.50;55.60;;;19.01;41.44;101833.38;5053295;28;20213;-66
2023/05/14 02:48:35;;;;;;;5.10;4.70;;;16.40;55.80;;;18.93;41.68;101824.53;5053330;28;20264;-66
2023/05/14 02:51:02;;;;;;;6.70;5.43;;;16.30;56.10;;;18.88;41.52;101834.16;5053570;28;20197;-66
2023/05/14 02:53:29;;;;;;;6.67;6.03;;;16.20;56.10;;;18.79;41.85;101830.03;5052867;28;20560;-65
2023/05/14 02:55:56;;;;;;;6.50;5.70;;;16.10;56.30;;;18.73;41.99;101823.66;5057218;28;20263;-66
2023/05/14 02:58:23;;;;;;;6.40;5.73;;;16.00;57.00;;;18.68;41.99;101823.47;5056904;28;20197;-66
2023/05/14 03:00:54;;;;;;;8.50;5.80;;;16.00;56.60;;;18.62;42.13;101823.41;5057036;28;20197;-66
2023/05/14 03:03:23;;;;;;;7.80;7.13;;;15.90;56.90;;;18.57;42.41;101826.69;5056609;28;20630;-66
2023/05/14 03:05:51;;;;;;;7.30;6.70;;;15.90;57.40;;;18.55;42.77;101826.06;5056706;28;20375;-66
2023/05/14 03:08:17;;;;;;;6.57;6.00;;;15.90;57.80;;;18.55;42.76;101817.25;5056213;28;20186;-66
2023/05/14 03:10:44;;;;;;;7.43;5.10;;;15.80;57.70;;;18.51;42.73;101819.50;5056655;28;20530;-65
2023/05/14 03:13:11;;;;;;;6.50;5.90;;;15.80;57.90;;;18.49;42.68;101818.88;5056742;28;20225;-65
2023/05/14 03:15:38;;;;;;;6.17;5.67;;;15.80;58.10;;;18.49;42.65;101821.53;5055445;28;20209;-66
2023/05/14 03:18:05;;;;;;;6.47;5.50;;;15.80;57.90;;;18.46;42.74;101819.28;5056764;28;20198;-66
2023/05/14 03:20:33;;;;;;;6.83;6.23;;;15.70;58.10;;;18.46;42.61;101813.94;5056717;28;20228;-66
2023/05/14 03:23:00;;;;;;;6.90;6.00;;;15.70;57.90;;;18.42;42.59;101817.16;5056209;28;20662;-65
2023/05/14 03:25:27;;;;;;;7.23;6.50;;;15.70;57.80;;;18.39;42.71;101818.38;5056600;28;20233;-64
2023/05/14 03:27:54;;;;;;;9.43;5.83;;;15.70;58.30;;;18.37;43.01;101820.44;5056703;28;20209;-66
2023/05/14 03:30:21;;;;;;;6.97;6.20;;;15.60;58.40;;;18.37;42.96;101822.28;5056692;28;20243;-66
2023/05/14 03:32:49;;;;;;;6.87;6.17;;;15.70;58.50;;;18.34;42.71;101825.31;5055675;28;20324;-65
2023/05/14 03:35:16;;;;;;;6.70;6.10;;;15.60;58.40;;;18.32;43.30;101822.88;5056258;28;20234;-65
2023/05/14 03:37:44;;;;;;;6.90;6.30;;;15.60;58.70;;;18.31;42.88;101829.22;5056121;28;20220;-66
2023/05/14 03:40:12;;;;;;;6.83;6.23;;;15.60;58.60;;;18.30;43.13;101827.59;5056198;28;20263;-66
2023/05/14 03:42:38;;;;;;;9.33;6.37;;;15.50;58.60;;;18.28;42.99;101832.25;5036139;28;20202;-66
2023/05/14 03:45:08;;;;;;;6.47;5.97;;;15.50;58.90;;;18.28;43.15;101832.25;5036049;28;20218;-66
2023/05/14 03:47:35;;;;;;;7.43;5.80;;;15.50;59.00;;;18.26;43.03;101827.13;5036121;28;20256;-66
2023/05/14 03:50:02;;;;;;;6.60;5.77;;;15.50;59.10;;;18.26;43.18;101826.31;5036279;28;20191;-66
2023/05/14 03:52:29;;;;;;;6.80;5.47;;;15.50;59.10;;;18.26;43.13;101828.97;5043557;28;20190;-66
2023/05/14 03:54:57;;;;;;;6.33;5.80;;;15.50;59.20;;;18.28;43.12;101832.25;5055718;28;20228;-66
2023/05/14 03:57:24;;;;;;;8.73;6.23;;;15.50;59.20;;;18.30;43.32;101826.75;5043763;28;20210;-66
2023/05/14 03:59:51;;;;;;;8.17;6.17;;;15.50;59.40;;;18.32;43.31;101833.53;5035475;28;20202;-66
2023/05/14 04:02:18;;;;;;;6.57;5.97;;;15.50;59.40;;;18.34;43.34;101826.16;5035691;28;20190;-65
2023/05/14 04:04:45;;;;;;;5.97;5.50;;;15.50;59.50;;;18.40;43.36;101824.56;5053230;28;20222;-65
2023/05/14 04:07:12;;;;;;;8.43;7.63;;;15.50;59.60;;;18.44;43.22;101821.28;5055282;28;20192;-66
2023/05/14 04:09:39;;;;;;;6.80;6.20;;;15.60;59.60;;;18.49;42.96;101823.38;5055801;28;20189;-66
2023/05/14 04:12:08;;;;;;;6.93;5.40;;;15.60;59.40;;;18.54;43.07;101826.28;5055656;28;20190;-65
2023/05/14 04:14:35;;;;;;;6.70;5.43;;;15.70;59.60;;;18.59;42.91;101819.31;5042074;28;20267;-65
2023/05/14 04:17:02;;;;;;;6.03;5.43;;;15.70;59.50;;;18.65;42.81;101826.53;5055498;28;20185;-66
2023/05/14 04:19:29;;;;;;;6.43;5.83;;;15.70;59.40;;;18.71;42.73;101828.38;5055465;28;20651;-65
2023/05/14 04:21:56;;;;;;;6.30;5.70;;;15.80;59.50;;;18.77;42.60;101832.09;5055114;28;20198;-67
2023/05/14 04:24:23;;;;;;;7.50;6.07;;;15.90;59.30;;;18.81;42.71;101828.81;5054962;28;20218;-67
2023/05/14 04:26:50;;;;;;;7.60;5.60;;;15.90;59.50;;;18.89;42.84;101828.63;5055390;28;20650;-67
2023/05/14 04:29:18;;;;;;;6.70;6.00;;;16.00;59.60;;;18.96;42.74;101825.97;5055238;28;20673;-67
2023/05/14 04:31:45;;;;;;;5.90;5.13;;;16.00;59.80;;;19.01;42.26;101826.19;5055057;28;20190;-67
2023/05/14 04:34:12;;;;;;;6.50;5.90;;;16.10;59.60;;;19.08;42.56;101813.69;5054572;28;20748;-66
2023/05/14 04:36:39;;;;;;;5.63;5.03;;;16.20;59.50;;;19.16;42.44;101820.66;5055092;28;20190;-66
2023/05/14 04:39:08;;;;;;;5.57;5.17;;;16.20;59.40;;;19.22;42.28;101822.50;5054935;28;20190;-65
2023/05/14 04:41:35;;;;;;;6.37;5.23;;;16.30;59.40;;;19.29;42.37;101831.34;5054916;28;20620;-67
2023/05/14 04:44:02;;;;;;;5.87;5.37;;;16.30;59.30;;;19.34;42.23;101827.03;5054689;28;20267;-66
2023/05/14 04:46:30;;;;;;;5.80;5.30;;;16.40;59.20;;;19.40;42.33;101828.09;5055028;28;20214;-66
2023/05/14 04:48:57;;;;;;;5.90;5.47;;;16.40;59.20;;;19.46;42.37;101832.63;5055151;28;20654;-66
2023/05/14 04:51:25;;;;;;;7.03;5.13;;;16.50;59.30;;;19.53;42.19;101833.44;5054894;28;20712;-66
2023/05/14 04:53:52;;;;;;;5.73;4.83;;;16.50;59.10;;;19.61;41.93;101841.25;5054509;28;20197;-66
2023/05/14 04:56:18;;;;;;;6.17;5.43;;;16.60;59.20;;;19.68;41.67;101835.91;5055020;28;20190;-65
2023/05/14 04:58:45;;;;;;;5.73;5.20;;;16.70;59.10;;;19.77;41.58;101842.66;5054915;28;20558;-66
2023/05/14 05:01:12;;;;;;;5.53;5.13;;;16.70;59.10;;;19.88;41.45;101847.38;5054696;28;20194;-68
2023/05/14 05:03:41;;;;;;;5.50;5.00;;;16.80;58.90;;;19.98;41.41;101843.25;5054162;28;20209;-65
2023/05/14 05:06:08;;;;;;;5.37;4.87;;;16.90;58.80;;;20.09;41.47;101850.63;5054596;28;20222;-65
2023/05/14 05:08:35;;;;;;;5.30;4.80;;;17.00;58.70;;;20.21;40.99;101851.63;5054273;28;20304;-66
2023/05/14 05:11:03;;;;;;;5.37;4.93;;;17.10;58.60;;;20.29;40.98;101849.78;5054550;28;20243;-66
2023/05/14 05:13:31;;;;;;;5.13;4.73;;;17.10;58.40;;;20.38;40.99;101845.81;5053369;28;20197;-66
2023/05/14 05:15:58;;;;;;;4.77;4.27;;;17.20;58.40;;;20.47;40.61;101852.56;5053074;28;20289;-65
2023/05/14 05:18:25;;;;;;;5.33;4.90;;;17.30;58.30;;;20.55;40.84;101849.66;5053682;28;20190;-64
2023/05/14 05:20:53;;;;;;;5.20;4.80;;;17.40;58.30;;;20.65;40.86;101850.03;5054458;28;20617;-65
2023/05/14 05:23:20;;;;;;;5.27;4.73;;;17.50;58.30;;;20.70;40.51;101844.88;5053853;28;20190;-65
2023/05/14 05:25:47;;;;;;;6.97;5.17;;;17.60;57.90;;;20.67;40.63;101850.63;5053817;28;20228;-65
2023/05/14 05:28:14;;;;;;;4.90;4.40;;;17.60;57.80;;;20.66;40.52;101839.13;5054362;28;20197;-64
2023/05/14 05:30:40;;;;;;;4.97;4.57;;;17.70;57.60;;;20.66;40.38;101846.31;5053747;28;20216;-66
2023/05/14 05:33:07;;;;;;;5.07;4.67;;;17.70;57.60;;;20.64;40.92;101837.69;5053374;28;20186;-67
2023/05/14 05:35:34;;;;;;;5.53;5.10;;;17.80;57.70;;;20.65;40.74;101842.00;5053245;28;20314;-68
2023/05/14 05:38:02;;;;;;;5.67;5.17;;;17.80;57.90;;;20.63;40.88;101841.41;5053447;28;20193;-66
2023/05/14 05:40:29;;;;;;;5.50;5.10;;;17.80;57.90;;;20.66;41.14;101846.31;5054002;28;20202;-66
2023/05/14 05:42:56;;;;;;;5.13;4.73;;;17.80;57.90;;;20.72;40.79;101845.47;5053680;28;20201;-66
2023/05/14 05:45:23;;;;;;;4.53;4.23;;;17.90;58.00;;;20.81;40.84;101846.84;5042660;28;20226;-66
2023/05/14 05:47:50;;;;;;;5.00;4.57;;;18.00;58.00;;;20.89;41.08;101839.38;5033693;28;20191;-66
2023/05/14 05:50:17;;;;;;;5.17;4.67;;;18.00;58.10;;;20.96;41.24;101839.38;5033971;28;20197;-66
2023/05/14 05:52:46;;;;;;;5.93;5.00;;;18.10;58.10;;;21.04;41.11;101833.75;5033715;28;20667;-65
2023/05/14 05:55:14;;;;;;;5.40;4.87;;;18.10;58.20;;;21.00;41.27;101837.06;5033767;28;20242;-65
2023/05/14 05:57:41;;;;;;;5.10;4.70;;;18.20;58.10;;;21.01;41.46;101839.53;5033717;28;20218;-66
2023/05/14 06:00:12;;;;;;;4.87;4.47;;;18.20;58.00;;;21.04;40.86;101836.41;5033849;28;20674;-66
2023/05/14 06:02:40;;;;;;;4.90;4.40;;;18.30;58.10;;;21.07;41.28;101838.69;5034906;28;20186;-66
2023/05/14 06:05:09;;;;;;;5.43;4.93;;;18.30;58.00;;;21.10;40.91;101843.63;5052287;28;20236;-65
2023/05/14 06:07:36;;;;;;;4.83;4.43;;;18.40;58.20;;;21.13;41.55;101840.53;5052872;28;20190;-66
2023/05/14 06:10:05;;;;;;;5.23;4.83;;;18.40;58.00;;;21.26;40.65;101840.41;5053450;28;20593;-68
2023/05/14 06:12:33;;;;;;;4.63;4.33;;;18.50;57.90;;;21.31;40.98;101851.31;5053691;28;20202;-66
2023/05/14 06:15:00;;;;;;;5.00;4.47;;;18.60;57.80;;;21.36;40.94;101846.13;5052782;28;20221;-65
2023/05/14 06:17:27;;;;;;;5.53;4.30;;;18.60;57.80;;;21.49;40.86;101842.50;5053299;28;20193;-65
2023/05/14 06:19:54;;;;;;;5.47;5.00;;;18.70;57.80;;;21.58;40.68;101847.34;5053153;28;20232;-63
2023/05/14 06:22:20;;;;;;;5.77;5.37;;;18.80;57.80;;;21.66;40.72;101838.22;5053564;28;20205;-66
2023/05/14 06:24:47;;;;;;;6.57;4.67;;;18.80;57.60;;;21.65;40.64;101846.50;5053230;28;20214;-65
2023/05/14 06:27:14;;;;;;;5.53;5.13;;;18.90;57.50;;;21.63;40.79;101853.94;5053235;28;20217;-66
2023/05/14 06:29:43;;;;;;;5.03;4.63;;;18.90;57.50;;;21.62;40.38;101844.25;5052857;28;20263;-65
2023/05/14 06:32:10;;;;;;;5.63;5.13;;;18.90;57.20;;;21.68;40.72;101846.06;5052852;28;20654;-65
2023/05/14 06:34:37;;;;;;;5.50;5.00;;;19.00;57.60;;;21.78;40.79;101851.72;5052788;28;20217;-65
2023/05/14 06:37:05;;;;;;;5.00;4.50;;;19.00;57.70;;;21.84;40.57;101851.72;5053048;28;20239;-65
2023/05/14 06:39:32;;;;;;;4.93;4.47;;;19.00;57.70;;;21.96;39.93;101851.78;5053247;28;20198;-65
2023/05/14 06:41:59;;;;;;;4.30;4.00;;;19.10;57.50;;;22.11;40.36;101854.91;5037705;28;20246;-66
2023/05/14 06:44:26;;;;;;;4.10;3.80;;;19.20;57.50;;;22.26;40.04;101858.06;5032686;28;20280;-65
2023/05/14 06:46:55;;;;;;;5.13;4.63;;;19.20;57.20;;;22.42;39.66;101854.75;5032535;28;20229;-65
2023/05/14 06:49:22;;;;;;;4.60;4.10;;;19.30;57.00;;;22.49;39.22;101852.81;5033131;28;20236;-67
2023/05/14 06:51:49;;;;;;;5.70;5.20;;;19.40;56.80;;;22.54;39.53;101858.34;5032560;28;20206;-66
2023/05/14 06:54:16;;;;;;;5.50;5.00;;;19.50;56.70;;;22.56;39.52;101850.06;5032673;28;20591;-65
2023/05/14 06:56:42;;;;;;;4.83;4.53;;;19.60;56.60;;;22.58;39.20;101856.81;5033194;28;20191;-67
2023/05/14 06:59:11;;;;;;;5.47;4.97;;;19.60;56.60;;;22.53;39.40;101862.06;5033313;28;20677;-67
2023/05/14 07:01:37;;;;;;;5.03;4.63;;;19.70;56.60;;;22.57;39.59;101868.63;5032966;28;20194;-66
2023/05/14 07:04:06;;;;;;;4.27;3.97;;;19.70;56.60;;;22.60;39.73;101857.44;5045577;28;20214;-67
2023/05/14 07:06:33;;;;;;;5.57;5.07;;;19.80;56.70;;;22.63;39.51;101859.69;5052660;28;20213;-67
2023/05/14 07:09:01;;;;;;;4.80;4.40;;;19.80;56.90;;;22.66;39.61;101856.56;5052827;28;20190;-65
2023/05/14 07:11:28;;;;;;;5.10;4.70;;;19.80;56.60;;;22.68;39.63;101857.16;5052326;28;20662;-65
2023/05/14 07:13:55;;;;;;;5.23;4.60;;;19.80;56.40;;;22.75;39.67;101860.56;5051821;28;20197;-66
2023/05/14 07:16:22;;;;;;;4.70;4.30;;;19.90;56.50;;;22.86;38.96;101851.75;5052351;28;20189;-65
2023/05/14 07:18:49;;;;;;;4.50;4.10;;;20.00;56.50;;;23.00;39.12;101851.53;5051816;28;20224;-65
2023/05/14 07:21:17;;;;;;;4.37;4.07;;;20.00;56.50;;;23.16;38.92;101850.88;5052104;28;20217;-65
2023/05/14 07:23:44;;;;;;;4.00;3.70;;;20.10;56.50;;;23.27;38.70;101852.81;5052044;28;20647;-63
2023/05/14 07:26:11;;;;;;;4.43;4.03;;;20.20;56.30;;;23.39;38.49;101853.66;5052468;28;20217;-65
2023/05/14 07:28:38;;;;;;;4.40;4.00;;;20.30;56.30;;;23.46;38.39;101840.94;5052667;28;20596;-65
2023/05/14 07:31:07;;;;;;;3.80;3.50;;;20.40;56.10;;;23.55;38.26;101845.75;5052110;28;20269;-64
2023/05/14 07:33:35;;;;;;;4.10;3.80;;;20.50;56.00;;;23.74;38.03;101840.25;5051744;28;20203;-66
2023/05/14 07:36:02;;;;;;;3.33;3.13;;;20.60;55.80;;;23.90;37.78;101843.03;5052161;28;20209;-66
2023/05/14 07:38:31;;;;;;;4.23;3.93;;;20.70;55.50;;;24.05;37.31;101835.31;5052296;28;20194;-67
2023/05/14 07:40:58;;;;;;;5.13;4.13;;;20.80;55.50;;;24.20;36.72;101835.66;5054089;28;20206;-65
2023/05/14 07:43:25;;;;;;;3.40;3.20;;;20.90;54.30;;;24.27;36.84;101829.31;5035804;28;20226;-65
2023/05/14 07:45:52;;;;;;;4.23;3.93;;;21.10;54.20;;;24.36;36.47;101836.78;5035907;28;20643;-66
2023/05/14 07:48:19;;;;;;;4.50;3.97;;;21.20;53.80;;;24.38;36.55;101837.38;5035833;28;20190;-65
2023/05/14 07:50:47;;;;;;;5.03;3.70;;;21.30;53.50;;;24.39;36.27;101843.56;5035466;28;20630;-65
2023/05/14 07:53:14;;;;;;;4.53;4.23;;;21.30;52.90;;;24.50;36.10;101834.63;5035268;28;20275;-66
2023/05/14 07:55:44;;;;;;;3.60;3.30;;;21.40;52.80;;;24.91;35.86;101833.56;5034552;28;20229;-66
2023/05/14 07:58:11;;;;;;;3.57;3.27;;;21.50;52.80;;;25.41;35.25;101835.22;5035625;28;20187;-66
2023/05/14 08:00:38;;;;;;;3.33;3.07;;;21.80;53.10;;;26.03;34.12;101832.38;5035751;28;20194;-66
2023/05/14 08:03:04;;;;;;;3.80;3.50;;;22.00;52.50;;;26.48;33.62;101830.25;5039937;28;20666;-66
2023/05/14 08:05:31;;;;;;;3.77;3.47;;;22.40;51.70;;;26.94;32.15;101828.06;5055268;28;20271;-65
2023/05/14 08:07:58;;;;;;;3.90;3.60;;;22.80;50.30;;;27.62;31.16;101822.69;5055158;28;20269;-66
2023/05/14 08:10:26;;;;;;;4.40;3.20;;;23.10;48.50;;;28.53;29.43;101828.53;5054965;28;20243;-66
2023/05/14 08:12:55;;;;;;;3.80;3.50;;;23.60;47.90;;;29.18;28.68;101830.56;5054730;28;20226;-66
2023/05/14 08:15:22;;;;;;;3.67;2.97;;;24.20;46.00;;;29.68;28.27;101827.00;5055203;28;20214;-66
2023/05/14 08:17:52;;;;;;;3.50;3.20;;;24.70;45.80;;;29.94;27.25;101823.16;5055293;28;20192;-67
2023/05/14 08:20:19;;;;;;;3.50;3.20;;;25.20;42.80;;;30.41;26.62;101820.81;5055107;28;20617;-66
2023/05/14 08:22:46;;;;;;;3.80;3.23;;;25.60;42.20;;;30.75;25.62;101821.69;5055337;28;20193;-66
2023/05/14 08:25:13;;;;;;;4.70;3.37;;;26.00;40.70;;;30.90;25.89;101817.25;5054811;28;20226;-66
2023/05/14 08:27:40;;;;;;;3.70;3.40;;;26.30;39.70;;;30.72;25.74;101811.38;5054687;28;20213;-66
2023/05/14 08:30:09;;;;;;;2.90;2.60;;;26.40;38.50;;;30.46;26.02;101812.63;5053822;28;20252;-67
2023/05/14 08:32:37;;;;;;;3.40;3.10;;;26.50;38.30;;;30.36;26.14;101815.38;5055178;28;20186;-66
2023/05/14 08:35:05;;;;;;;3.13;2.93;;;26.50;38.30;;;30.43;25.77;101818.63;5054815;28;20708;-66
2023/05/14 08:37:32;;;;;;;3.53;3.33;;;26.40;38.20;;;31.03;25.32;101805.72;5054979;28;20579;-66
2023/05/14 08:39:59;;;;;;;3.17;2.90;;;26.60;38.50;;;31.74;24.92;101801.22;5055469;28;20198;-66
2023/05/14 08:42:28;;;;;;;3.20;3.00;;;26.90;38.50;;;32.71;23.36;101804.38;5061315;28;20206;-65
2023/05/14 08:45:00;;;;;;;4.53;3.53;;;27.30;37.20;;;33.07;22.78;101794.50;5060528;28;20248;-65
2023/05/14 08:47:30;;;;;;;3.37;3.10;;;27.70;35.90;;;33.10;22.59;101793.91;5058400;28;20531;-65
2023/05/14 08:50:05;;;;;;;3.23;3.03;;;28.00;35.20;;;33.10;22.98;101802.09;5054374;28;20278;-65
2023/05/14 08:52:33;;;;;;;4.17;3.03;;;28.30;35.40;;;33.01;22.69;101792.94;5054123;28;20231;-65
2023/05/14 08:55:04;;;;;;;3.30;3.10;;;28.30;34.50;;;33.25;22.15;101793.66;5054461;28;20221;-65
2023/05/14 08:57:33;;;;;;;8.30;3.47;;;28.40;33.40;;;33.59;21.44;101787.06;5053933;28;20213;-66
2023/05/14 09:00:01;;;;;;;3.40;3.10;;;28.50;32.30;;;34.08;20.90;101789.88;5054466;28;20186;-66
2023/05/14 09:02:31;;;;;;;3.47;3.20;;;28.70;32.20;;;34.62;20.32;101789.75;5053812;28;20280;-66
2023/05/14 09:05:00;;;;;;;3.87;3.33;;;29.10;31.20;;;34.66;19.09;101790.75;5034051;28;20543;-66
2023/05/14 09:07:27;;;;;;;3.27;2.63;;;29.20;29.40;;;34.68;18.87;101782.25;5033591;28;20225;-66
2023/05/14 09:09:55;;;;;;;3.73;3.30;;;29.50;29.00;;;34.85;19.30;101782.34;5034182;28;20214;-65
2023/05/14 09:12:22;;;;;;;3.67;3.17;;;29.70;29.40;;;34.58;19.57;101788.78;5035649;28;20210;-67
2023/05/14 09:14:49;;;;;;;4.07;3.00;;;29.80;28.80;;;34.14;19.97;101777.69;5053089;28;20209;-66
2023/05/14 09:17:17;;;;;;;3.00;2.80;;;29.80;28.70;;;33.87;20.62;101775.00;5054038;28;20186;-65
2023/05/14 09:19:48;;;;;;;3.57;3.03;;;29.70;28.70;;;33.64;20.36;101779.53;5053416;28;20214;-65
2023/05/14 09:22:18;;;;;;;3.27;3.07;;;29.50;29.10;;;33.51;20.56;101774.06;5053457;28;20232;-65
2023/05/14 09:25:01;;;;;;;3.40;3.10;;;29.40;28.90;;;33.40;20.15;101776.19;5053444;28;20291;-65
2023/05/14 09:27:30;;;;;;;2.80;2.60;;;29.20;29.00;;;33.94;20.02;101768.00;5053578;28;20202;-65
2023/05/14 09:30:08;;;;;;;2.83;2.63;;;29.30;29.10;;;34.33;18.83;101769.38;5045988;28;20195;-65
2023/05/14 09:32:37;;;;;;;3.33;3.03;;;29.50;28.60;;;34.66;18.97;101768.84;5049165;28;20587;-66
2023/05/14 09:35:16;;;;;;;3.50;3.20;;;29.60;28.60;;;34.50;19.02;101775.78;5032279;28;20345;-65
2023/05/14 09:37:45;;;;;;;3.50;3.00;;;29.60;28.30;;;34.14;19.67;101764.03;5033501;28;20575;-65
2023/05/14 09:40:14;;;;;;;5.03;3.77;;;29.60;28.60;;;34.34;19.69;101769.06;5044049;28;20197;-65
2023/05/14 09:42:41;;;;;;;3.80;3.40;;;29.70;28.90;;;34.72;19.29;101756.69;5053185;28;20245;-66
2023/05/14 09:45:09;;;;;;;3.00;2.80;;;29.80;28.70;;;35.16;19.18;101763.25;5053085;28;20670;-66
2023/05/14 09:47:37;;;;;;;3.25;2.70;;;29.90;28.70;;;35.61;18.90;101751.03;5052892;28;20213;-66
2023/05/14 09:50:07;;;;;;;3.28;2.97;;;30.10;28.90;;;36.15;17.48;101755.22;5053221;28;20205;-66
2023/05/14 09:52:37;;;;;;;3.20;2.72;;;30.30;27.60;;;36.66;17.22;101748.94;5053141;28;20193;-67
2023/05/14 09:55:05;;;;;;;3.38;3.17;;;30.60;27.40;;;36.94;17.21;101744.72;5052924;28;20736;-68
2023/05/14 09:57:33;;;;;;;3.40;3.20;;;31.00;27.20;;;36.84;16.87;101746.97;5052699;28;20652;-67
2023/05/14 10:00:00;;;;;;;3.20;3.00;;;31.10;26.60;;;36.05;17.03;101749.22;5053047;28;20201;-66
2023/05/14 10:02:36;;;;;;;4.28;3.25;;;31.10;25.70;;;35.05;17.79;101739.97;5051953;28;20190;-67
2023/05/14 10:05:05;;;;;;;3.50;3.15;;;30.90;26.00;;;34.17;18.51;101747.00;5032228;28;20210;-66
2023/05/14 10:07:41;;;;;;;4.47;3.05;;;30.60;26.20;;;33.61;18.68;101752.03;5032711;28;20214;-66
2023/05/14 10:10:14;;;;;;;4.50;2.90;;;30.20;26.20;;;32.96;19.48;101741.19;5033276;28;20651;-66
2023/05/14 10:12:51;;;;;;;3.53;3.23;;;29.80;26.70;;;32.26;19.84;101747.75;5037184;28;20265;-66
2023/05/14 10:15:25;;;;;;;3.80;3.10;;;29.40;27.10;;;31.47;21.29;101745.72;5052760;28;20292;-66